sensor_id;sensor_type;location;lat;lon;timestamp;P1;durP1;ratioP1;P2;durP2;ratioP2
77280;SDS011;66339;47.262;17.144;2023-08-24T00:02:19;8.75;;;4.85;;
77280;SDS011;66339;47.262;17.144;2023-08-24T00:04:50;5.12;;;4.37;;
77280;SDS011;66339;47.262;17.144;2023-08-24T00:07:23;6.07;;;4.80;;
77280;SDS011;66339;47.262;17.144;2023-08-24T00:10:00;6.78;;;4.55;;
77280;SDS011;66339;47.262;17.144;2023-08-24T00:12:34;5.62;;;4.37;;
77280;SDS011;66339;47.262;17.144;2023-08-24T00:15:03;8.18;;;4.72;;
77280;SDS011;66339;47.262;17.144;2023-08-24T00:17:41;6.30;;;4.47;;
77280;SDS011;66339;47.262;17.144;2023-08-24T00:20:18;6.93;;;4.60;;
77280;SDS011;66339;47.262;17.144;2023-08-24T00:22:46;6.12;;;4.43;;
77280;SDS011;66339;47.262;17.144;2023-08-24T00:25:18;5.47;;;4.50;;
77280;SDS011;66339;47.262;17.144;2023-08-24T00:27:53;6.75;;;4.60;;
77280;SDS011;66339;47.262;17.144;2023-08-24T00:33:07;7.57;;;4.65;;
77280;SDS011;66339;47.262;17.144;2023-08-24T00:35:35;6.60;;;4.78;;
77280;SDS011;66339;47.262;17.144;2023-08-24T00:38:03;6.37;;;4.95;;
77280;SDS011;66339;47.262;17.144;2023-08-24T00:40:34;6.45;;;4.90;;
77280;SDS011;66339;47.262;17.144;2023-08-24T00:43:04;6.07;;;4.82;;
77280;SDS011;66339;47.262;17.144;2023-08-24T00:45:52;6.30;;;4.30;;
77280;SDS011;66339;47.262;17.144;2023-08-24T00:48:24;7.22;;;4.68;;
77280;SDS011;66339;47.262;17.144;2023-08-24T00:51:02;7.93;;;4.62;;
77280;SDS011;66339;47.262;17.144;2023-08-24T00:53:35;5.40;;;4.68;;
77280;SDS011;66339;47.262;17.144;2023-08-24T00:56:04;5.22;;;4.25;;
77280;SDS011;66339;47.262;17.144;2023-08-24T00:58:44;5.47;;;4.60;;
77280;SDS011;66339;47.262;17.144;2023-08-24T01:01:13;6.80;;;4.50;;
77280;SDS011;66339;47.262;17.144;2023-08-24T01:03:47;8.75;;;4.28;;
77280;SDS011;66339;47.262;17.144;2023-08-24T01:06:25;5.32;;;4.45;;
77280;SDS011;66339;47.262;17.144;2023-08-24T01:08:53;5.90;;;4.40;;
77280;SDS011;66339;47.262;17.144;2023-08-24T01:17:36;7.15;;;4.62;;
77280;SDS011;66339;47.262;17.144;2023-08-24T01:20:18;7.15;;;4.60;;
77280;SDS011;66339;47.262;17.144;2023-08-24T01:22:53;6.57;;;4.70;;
77280;SDS011;66339;47.262;17.144;2023-08-24T01:28:47;5.90;;;4.68;;
77280;SDS011;66339;47.262;17.144;2023-08-24T01:31:25;6.35;;;4.57;;
77280;SDS011;66339;47.262;17.144;2023-08-24T01:34:06;4.78;;;4.32;;
77280;SDS011;66339;47.262;17.144;2023-08-24T01:36:33;7.60;;;4.60;;
77280;SDS011;66339;47.262;17.144;2023-08-24T01:39:11;5.70;;;4.32;;
77280;SDS011;66339;47.262;17.144;2023-08-24T01:41:45;5.72;;;4.32;;
77280;SDS011;66339;47.262;17.144;2023-08-24T01:44:20;5.53;;;4.62;;
77280;SDS011;66339;47.262;17.144;2023-08-24T01:46:57;6.18;;;4.62;;
77280;SDS011;66339;47.262;17.144;2023-08-24T01:49:50;4.87;;;4.37;;
77280;SDS011;66339;47.262;17.144;2023-08-24T01:52:18;6.10;;;4.80;;
77280;SDS011;66339;47.262;17.144;2023-08-24T01:54:52;6.25;;;4.40;;
77280;SDS011;66339;47.262;17.144;2023-08-24T01:57:23;7.30;;;5.10;;
77280;SDS011;66339;47.262;17.144;2023-08-24T02:00:03;5.37;;;4.78;;
77280;SDS011;66339;47.262;17.144;2023-08-24T02:02:42;7.32;;;5.05;;
77280;SDS011;66339;47.262;17.144;2023-08-24T02:05:14;8.25;;;4.97;;
77280;SDS011;66339;47.262;17.144;2023-08-24T02:07:44;6.82;;;4.70;;
77280;SDS011;66339;47.262;17.144;2023-08-24T02:10:18;5.80;;;4.65;;
77280;SDS011;66339;47.262;17.144;2023-08-24T02:12:51;8.18;;;4.60;;
77280;SDS011;66339;47.262;17.144;2023-08-24T02:15:23;6.05;;;4.75;;
77280;SDS011;66339;47.262;17.144;2023-08-24T02:17:55;6.28;;;4.60;;
77280;SDS011;66339;47.262;17.144;2023-08-24T02:20:25;6.53;;;4.82;;
77280;SDS011;66339;47.262;17.144;2023-08-24T02:23:16;10.20;;;4.57;;
77280;SDS011;66339;47.262;17.144;2023-08-24T02:25:46;7.18;;;5.03;;
77280;SDS011;66339;47.262;17.144;2023-08-24T02:28:14;6.15;;;4.72;;
77280;SDS011;66339;47.262;17.144;2023-08-24T02:30:48;6.55;;;4.62;;
77280;SDS011;66339;47.262;17.144;2023-08-24T02:33:20;7.60;;;4.72;;
77280;SDS011;66339;47.262;17.144;2023-08-24T02:36:09;6.55;;;4.57;;
77280;SDS011;66339;47.262;17.144;2023-08-24T02:38:46;6.25;;;4.50;;
77280;SDS011;66339;47.262;17.144;2023-08-24T02:41:14;8.68;;;4.53;;
77280;SDS011;66339;47.262;17.144;2023-08-24T02:43:49;5.57;;;4.62;;
77280;SDS011;66339;47.262;17.144;2023-08-24T02:46:20;7.05;;;4.68;;
77280;SDS011;66339;47.262;17.144;2023-08-24T02:48:48;6.75;;;4.60;;
77280;SDS011;66339;47.262;17.144;2023-08-24T02:51:20;7.40;;;5.20;;
77280;SDS011;66339;47.262;17.144;2023-08-24T02:53:51;7.78;;;4.57;;
77280;SDS011;66339;47.262;17.144;2023-08-24T02:56:24;8.18;;;4.90;;
77280;SDS011;66339;47.262;17.144;2023-08-24T02:59:06;6.07;;;4.45;;
77280;SDS011;66339;47.262;17.144;2023-08-24T03:01:48;5.12;;;4.60;;
77280;SDS011;66339;47.262;17.144;2023-08-24T03:04:17;6.35;;;4.80;;
77280;SDS011;66339;47.262;17.144;2023-08-24T03:06:47;6.33;;;4.97;;
77280;SDS011;66339;47.262;17.144;2023-08-24T03:09:27;5.45;;;4.82;;
77280;SDS011;66339;47.262;17.144;2023-08-24T03:11:54;8.20;;;4.87;;
77280;SDS011;66339;47.262;17.144;2023-08-24T03:14:23;5.68;;;4.90;;
77280;SDS011;66339;47.262;17.144;2023-08-24T03:16:58;5.65;;;4.87;;
77280;SDS011;66339;47.262;17.144;2023-08-24T03:19:30;6.47;;;4.22;;
77280;SDS011;66339;47.262;17.144;2023-08-24T03:21:58;5.37;;;4.50;;
77280;SDS011;66339;47.262;17.144;2023-08-24T03:24:48;5.68;;;4.72;;
77280;SDS011;66339;47.262;17.144;2023-08-24T03:27:37;5.50;;;4.47;;
77280;SDS011;66339;47.262;17.144;2023-08-24T03:30:10;8.13;;;4.93;;
77280;SDS011;66339;47.262;17.144;2023-08-24T03:32:39;7.07;;;4.82;;
77280;SDS011;66339;47.262;17.144;2023-08-24T03:35:06;6.25;;;5.10;;
77280;SDS011;66339;47.262;17.144;2023-08-24T03:37:37;5.80;;;4.68;;
77280;SDS011;66339;47.262;17.144;2023-08-24T03:40:06;5.75;;;4.57;;
77280;SDS011;66339;47.262;17.144;2023-08-24T03:42:47;8.10;;;5.00;;
77280;SDS011;66339;47.262;17.144;2023-08-24T03:45:14;7.12;;;5.25;;
77280;SDS011;66339;47.262;17.144;2023-08-24T03:47:44;6.40;;;5.07;;
77280;SDS011;66339;47.262;17.144;2023-08-24T03:50:16;6.68;;;5.00;;
77280;SDS011;66339;47.262;17.144;2023-08-24T03:52:43;5.47;;;4.72;;
77280;SDS011;66339;47.262;17.144;2023-08-24T03:55:22;7.10;;;5.00;;
77280;SDS011;66339;47.262;17.144;2023-08-24T03:57:50;6.62;;;4.75;;
77280;SDS011;66339;47.262;17.144;2023-08-24T04:00:23;6.45;;;5.10;;
77280;SDS011;66339;47.262;17.144;2023-08-24T04:02:51;5.60;;;5.00;;
77280;SDS011;66339;47.262;17.144;2023-08-24T04:05:26;8.02;;;5.28;;
77280;SDS011;66339;47.262;17.144;2023-08-24T04:07:53;5.68;;;5.05;;
77280;SDS011;66339;47.262;17.144;2023-08-24T04:10:31;5.60;;;4.55;;
77280;SDS011;66339;47.262;17.144;2023-08-24T04:12:59;6.22;;;4.72;;
77280;SDS011;66339;47.262;17.144;2023-08-24T04:15:29;7.85;;;4.43;;
77280;SDS011;66339;47.262;17.144;2023-08-24T04:17:59;6.45;;;4.80;;
77280;SDS011;66339;47.262;17.144;2023-08-24T04:20:28;8.52;;;5.03;;
77280;SDS011;66339;47.262;17.144;2023-08-24T04:22:57;7.47;;;5.95;;
77280;SDS011;66339;47.262;17.144;2023-08-24T04:25:26;7.90;;;5.80;;
77280;SDS011;66339;47.262;17.144;2023-08-24T04:27:56;7.12;;;5.75;;
77280;SDS011;66339;47.262;17.144;2023-08-24T04:32:56;7.93;;;6.40;;
77280;SDS011;66339;47.262;17.144;2023-08-24T04:35:34;8.05;;;6.18;;
77280;SDS011;66339;47.262;17.144;2023-08-24T04:38:03;12.30;;;5.95;;
77280;SDS011;66339;47.262;17.144;2023-08-24T04:40:53;7.72;;;6.20;;
77280;SDS011;66339;47.262;17.144;2023-08-24T04:43:23;9.18;;;6.20;;
77280;SDS011;66339;47.262;17.144;2023-08-24T04:45:57;6.85;;;5.82;;
77280;SDS011;66339;47.262;17.144;2023-08-24T04:48:26;8.18;;;6.35;;
77280;SDS011;66339;47.262;17.144;2023-08-24T04:50:58;9.50;;;6.85;;
77280;SDS011;66339;47.262;17.144;2023-08-24T04:53:29;7.65;;;6.43;;
77280;SDS011;66339;47.262;17.144;2023-08-24T04:56:03;8.43;;;6.15;;
77280;SDS011;66339;47.262;17.144;2023-08-24T04:58:37;10.00;;;6.53;;
77280;SDS011;66339;47.262;17.144;2023-08-24T05:01:14;9.70;;;5.90;;
77280;SDS011;66339;47.262;17.144;2023-08-24T05:03:48;7.85;;;6.25;;
77280;SDS011;66339;47.262;17.144;2023-08-24T05:06:18;9.25;;;6.32;;
77280;SDS011;66339;47.262;17.144;2023-08-24T05:08:48;8.00;;;6.25;;
77280;SDS011;66339;47.262;17.144;2023-08-24T05:11:26;8.02;;;6.43;;
77280;SDS011;66339;47.262;17.144;2023-08-24T05:13:55;6.93;;;6.00;;
77280;SDS011;66339;47.262;17.144;2023-08-24T05:16:25;7.75;;;6.25;;
77280;SDS011;66339;47.262;17.144;2023-08-24T05:19:00;8.65;;;6.12;;
77280;SDS011;66339;47.262;17.144;2023-08-24T05:21:33;9.18;;;6.30;;
77280;SDS011;66339;47.262;17.144;2023-08-24T05:24:02;7.65;;;6.35;;
77280;SDS011;66339;47.262;17.144;2023-08-24T05:26:30;8.57;;;6.97;;
77280;SDS011;66339;47.262;17.144;2023-08-24T05:29:01;7.72;;;6.32;;
77280;SDS011;66339;47.262;17.144;2023-08-24T05:31:29;9.05;;;7.10;;
77280;SDS011;66339;47.262;17.144;2023-08-24T05:34:02;9.82;;;6.97;;
77280;SDS011;66339;47.262;17.144;2023-08-24T05:36:30;13.25;;;7.43;;
77280;SDS011;66339;47.262;17.144;2023-08-24T05:38:58;9.50;;;7.07;;
77280;SDS011;66339;47.262;17.144;2023-08-24T05:41:33;10.10;;;7.70;;
77280;SDS011;66339;47.262;17.144;2023-08-24T05:44:01;9.23;;;7.53;;
77280;SDS011;66339;47.262;17.144;2023-08-24T05:46:32;11.90;;;7.45;;
77280;SDS011;66339;47.262;17.144;2023-08-24T05:48:59;11.63;;;7.93;;
77280;SDS011;66339;47.262;17.144;2023-08-24T05:51:28;10.20;;;7.70;;
77280;SDS011;66339;47.262;17.144;2023-08-24T05:54:10;8.07;;;7.05;;
77280;SDS011;66339;47.262;17.144;2023-08-24T05:56:39;13.40;;;7.00;;
77280;SDS011;66339;47.262;17.144;2023-08-24T05:59:10;17.43;;;8.20;;
77280;SDS011;66339;47.262;17.144;2023-08-24T06:01:38;21.73;;;8.35;;
77280;SDS011;66339;47.262;17.144;2023-08-24T06:04:11;14.82;;;7.90;;
77280;SDS011;66339;47.262;17.144;2023-08-24T06:06:40;15.73;;;7.85;;
77280;SDS011;66339;47.262;17.144;2023-08-24T06:11:48;14.80;;;7.73;;
77280;SDS011;66339;47.262;17.144;2023-08-24T06:14:24;15.85;;;7.70;;
77280;SDS011;66339;47.262;17.144;2023-08-24T06:16:55;11.05;;;7.07;;
77280;SDS011;66339;47.262;17.144;2023-08-24T06:19:26;15.32;;;7.07;;
77280;SDS011;66339;47.262;17.144;2023-08-24T06:21:58;14.68;;;7.62;;
77280;SDS011;66339;47.262;17.144;2023-08-24T06:24:31;13.13;;;7.07;;
77280;SDS011;66339;47.262;17.144;2023-08-24T06:26:59;9.27;;;7.22;;
77280;SDS011;66339;47.262;17.144;2023-08-24T06:29:32;15.32;;;7.45;;
77280;SDS011;66339;47.262;17.144;2023-08-24T06:32:04;12.60;;;7.50;;
77280;SDS011;66339;47.262;17.144;2023-08-24T06:34:35;9.77;;;7.15;;
77280;SDS011;66339;47.262;17.144;2023-08-24T06:37:09;12.65;;;7.68;;
77280;SDS011;66339;47.262;17.144;2023-08-24T06:39:38;14.68;;;7.28;;
77280;SDS011;66339;47.262;17.144;2023-08-24T06:42:15;11.80;;;7.22;;
77280;SDS011;66339;47.262;17.144;2023-08-24T06:44:54;10.02;;;6.65;;
77280;SDS011;66339;47.262;17.144;2023-08-24T06:47:29;10.38;;;7.30;;
77280;SDS011;66339;47.262;17.144;2023-08-24T06:50:02;10.82;;;7.00;;
77280;SDS011;66339;47.262;17.144;2023-08-24T06:52:37;11.88;;;6.90;;
77280;SDS011;66339;47.262;17.144;2023-08-24T06:55:09;9.95;;;6.90;;
77280;SDS011;66339;47.262;17.144;2023-08-24T06:57:38;9.18;;;6.50;;
77280;SDS011;66339;47.262;17.144;2023-08-24T07:00:10;12.70;;;6.62;;
77280;SDS011;66339;47.262;17.144;2023-08-24T07:02:42;8.30;;;6.28;;
77280;SDS011;66339;47.262;17.144;2023-08-24T07:05:12;10.35;;;6.47;;
77280;SDS011;66339;47.262;17.144;2023-08-24T07:10:53;14.13;;;6.25;;
77280;SDS011;66339;47.262;17.144;2023-08-24T07:16:30;7.60;;;6.05;;
77280;SDS011;66339;47.262;17.144;2023-08-24T07:19:13;11.40;;;5.68;;
77280;SDS011;66339;47.262;17.144;2023-08-24T07:21:47;10.68;;;6.00;;
77280;SDS011;66339;47.262;17.144;2023-08-24T07:24:21;9.13;;;5.97;;
77280;SDS011;66339;47.262;17.144;2023-08-24T07:27:04;12.18;;;6.05;;
77280;SDS011;66339;47.262;17.144;2023-08-24T07:29:34;9.52;;;5.97;;
77280;SDS011;66339;47.262;17.144;2023-08-24T07:32:01;15.80;;;6.35;;
77280;SDS011;66339;47.262;17.144;2023-08-24T07:34:29;14.87;;;6.45;;
77280;SDS011;66339;47.262;17.144;2023-08-24T07:36:56;14.85;;;6.68;;
77280;SDS011;66339;47.262;17.144;2023-08-24T07:39:23;9.85;;;5.85;;
77280;SDS011;66339;47.262;17.144;2023-08-24T07:41:50;11.90;;;6.05;;
77280;SDS011;66339;47.262;17.144;2023-08-24T07:44:20;14.20;;;6.20;;
77280;SDS011;66339;47.262;17.144;2023-08-24T07:46:47;9.85;;;6.15;;
77280;SDS011;66339;47.262;17.144;2023-08-24T07:49:18;8.98;;;6.05;;
77280;SDS011;66339;47.262;17.144;2023-08-24T07:51:46;9.25;;;6.32;;
77280;SDS011;66339;47.262;17.144;2023-08-24T07:54:15;9.50;;;6.30;;
77280;SDS011;66339;47.262;17.144;2023-08-24T07:56:42;11.40;;;6.25;;
77280;SDS011;66339;47.262;17.144;2023-08-24T07:59:09;11.75;;;6.18;;
77280;SDS011;66339;47.262;17.144;2023-08-24T08:01:38;9.35;;;6.22;;
77280;SDS011;66339;47.262;17.144;2023-08-24T08:04:06;11.43;;;5.95;;
77280;SDS011;66339;47.262;17.144;2023-08-24T08:06:36;12.20;;;6.10;;
77280;SDS011;66339;47.262;17.144;2023-08-24T08:09:03;8.25;;;5.75;;
77280;SDS011;66339;47.262;17.144;2023-08-24T08:11:31;9.82;;;5.55;;
77280;SDS011;66339;47.262;17.144;2023-08-24T08:13:58;8.18;;;6.20;;
77280;SDS011;66339;47.262;17.144;2023-08-24T08:16:27;11.63;;;6.07;;
77280;SDS011;66339;47.262;17.144;2023-08-24T08:18:54;9.00;;;5.82;;
77280;SDS011;66339;47.262;17.144;2023-08-24T08:21:25;10.50;;;5.70;;
77280;SDS011;66339;47.262;17.144;2023-08-24T08:23:52;10.82;;;6.00;;
77280;SDS011;66339;47.262;17.144;2023-08-24T08:26:19;6.72;;;5.60;;
77280;SDS011;66339;47.262;17.144;2023-08-24T08:28:46;10.68;;;5.80;;
77280;SDS011;66339;47.262;17.144;2023-08-24T08:31:16;9.60;;;5.80;;
77280;SDS011;66339;47.262;17.144;2023-08-24T08:33:43;12.07;;;6.05;;
77280;SDS011;66339;47.262;17.144;2023-08-24T08:36:10;9.63;;;6.30;;
77280;SDS011;66339;47.262;17.144;2023-08-24T08:38:37;7.87;;;5.68;;
77280;SDS011;66339;47.262;17.144;2023-08-24T08:41:04;9.02;;;5.47;;
77280;SDS011;66339;47.262;17.144;2023-08-24T08:43:34;8.27;;;5.68;;
77280;SDS011;66339;47.262;17.144;2023-08-24T08:46:04;10.63;;;5.40;;
77280;SDS011;66339;47.262;17.144;2023-08-24T08:48:32;10.27;;;5.65;;
77280;SDS011;66339;47.262;17.144;2023-08-24T08:51:00;8.20;;;5.50;;
77280;SDS011;66339;47.262;17.144;2023-08-24T08:53:28;8.05;;;5.68;;
77280;SDS011;66339;47.262;17.144;2023-08-24T08:55:55;6.60;;;5.30;;
77280;SDS011;66339;47.262;17.144;2023-08-24T08:58:22;13.18;;;5.85;;
77280;SDS011;66339;47.262;17.144;2023-08-24T09:00:51;10.18;;;5.82;;
77280;SDS011;66339;47.262;17.144;2023-08-24T09:03:19;8.18;;;5.32;;
77280;SDS011;66339;47.262;17.144;2023-08-24T09:05:47;8.30;;;5.30;;
77280;SDS011;66339;47.262;17.144;2023-08-24T09:08:21;6.45;;;5.22;;
77280;SDS011;66339;47.262;17.144;2023-08-24T09:10:51;6.78;;;5.47;;
77280;SDS011;66339;47.262;17.144;2023-08-24T09:13:22;10.13;;;5.35;;
77280;SDS011;66339;47.262;17.144;2023-08-24T09:15:51;6.95;;;5.35;;
77280;SDS011;66339;47.262;17.144;2023-08-24T09:18:18;9.18;;;5.35;;
77280;SDS011;66339;47.262;17.144;2023-08-24T09:20:48;9.70;;;5.40;;
77280;SDS011;66339;47.262;17.144;2023-08-24T09:23:18;7.70;;;5.20;;
77280;SDS011;66339;47.262;17.144;2023-08-24T09:25:50;10.25;;;5.47;;
77280;SDS011;66339;47.262;17.144;2023-08-24T09:28:24;7.85;;;5.28;;
77280;SDS011;66339;47.262;17.144;2023-08-24T09:30:54;6.90;;;5.25;;
77280;SDS011;66339;47.262;17.144;2023-08-24T09:33:22;8.52;;;5.47;;
77280;SDS011;66339;47.262;17.144;2023-08-24T09:35:52;6.35;;;5.25;;
77280;SDS011;66339;47.262;17.144;2023-08-24T09:38:22;7.62;;;5.05;;
77280;SDS011;66339;47.262;17.144;2023-08-24T09:40:50;9.27;;;5.70;;
77280;SDS011;66339;47.262;17.144;2023-08-24T09:43:19;7.07;;;5.25;;
77280;SDS011;66339;47.262;17.144;2023-08-24T09:45:52;6.10;;;5.20;;
77280;SDS011;66339;47.262;17.144;2023-08-24T09:48:20;6.75;;;5.30;;
77280;SDS011;66339;47.262;17.144;2023-08-24T09:50:54;6.60;;;5.25;;
77280;SDS011;66339;47.262;17.144;2023-08-24T09:53:27;5.97;;;5.12;;
77280;SDS011;66339;47.262;17.144;2023-08-24T09:56:00;7.53;;;5.30;;
77280;SDS011;66339;47.262;17.144;2023-08-24T09:58:30;5.93;;;5.00;;
77280;SDS011;66339;47.262;17.144;2023-08-24T10:01:01;6.93;;;5.60;;
77280;SDS011;66339;47.262;17.144;2023-08-24T10:03:30;7.35;;;5.32;;
77280;SDS011;66339;47.262;17.144;2023-08-24T10:05:59;5.45;;;4.90;;
77280;SDS011;66339;47.262;17.144;2023-08-24T10:08:36;5.78;;;4.50;;
77280;SDS011;66339;47.262;17.144;2023-08-24T10:11:05;6.82;;;5.30;;
77280;SDS011;66339;47.262;17.144;2023-08-24T10:13:46;5.75;;;5.03;;
77280;SDS011;66339;47.262;17.144;2023-08-24T10:16:31;6.53;;;5.12;;
77280;SDS011;66339;47.262;17.144;2023-08-24T10:19:02;7.60;;;4.97;;
77280;SDS011;66339;47.262;17.144;2023-08-24T10:21:31;7.03;;;4.70;;
77280;SDS011;66339;47.262;17.144;2023-08-24T10:24:00;7.10;;;5.03;;
77280;SDS011;66339;47.262;17.144;2023-08-24T10:26:29;6.28;;;5.12;;
77280;SDS011;66339;47.262;17.144;2023-08-24T10:28:59;5.97;;;5.32;;
77280;SDS011;66339;47.262;17.144;2023-08-24T10:31:27;6.75;;;4.82;;
77280;SDS011;66339;47.262;17.144;2023-08-24T10:33:56;7.07;;;5.15;;
77280;SDS011;66339;47.262;17.144;2023-08-24T10:36:25;5.30;;;4.80;;
77280;SDS011;66339;47.262;17.144;2023-08-24T10:38:55;7.97;;;5.28;;
77280;SDS011;66339;47.262;17.144;2023-08-24T10:41:26;5.75;;;5.05;;
77280;SDS011;66339;47.262;17.144;2023-08-24T10:44:03;5.93;;;4.97;;
77280;SDS011;66339;47.262;17.144;2023-08-24T10:46:34;5.25;;;4.75;;
77280;SDS011;66339;47.262;17.144;2023-08-24T10:49:03;7.03;;;4.75;;
77280;SDS011;66339;47.262;17.144;2023-08-24T10:51:42;6.00;;;4.78;;
77280;SDS011;66339;47.262;17.144;2023-08-24T10:54:11;6.25;;;4.90;;
77280;SDS011;66339;47.262;17.144;2023-08-24T10:56:52;5.55;;;5.00;;
77280;SDS011;66339;47.262;17.144;2023-08-24T10:59:20;5.20;;;4.68;;
77280;SDS011;66339;47.262;17.144;2023-08-24T11:02:07;6.00;;;4.75;;
77280;SDS011;66339;47.262;17.144;2023-08-24T11:07:32;5.50;;;4.80;;
77280;SDS011;66339;47.262;17.144;2023-08-24T11:09:59;5.25;;;4.75;;
77280;SDS011;66339;47.262;17.144;2023-08-24T11:15:38;6.37;;;5.00;;
77280;SDS011;66339;47.262;17.144;2023-08-24T11:20:49;6.97;;;4.62;;
77280;SDS011;66339;47.262;17.144;2023-08-24T11:23:47;6.57;;;5.10;;
77280;SDS011;66339;47.262;17.144;2023-08-24T11:26:15;6.50;;;4.65;;
77280;SDS011;66339;47.262;17.144;2023-08-24T11:28:43;6.03;;;5.30;;
77280;SDS011;66339;47.262;17.144;2023-08-24T11:31:10;5.35;;;4.60;;
77280;SDS011;66339;47.262;17.144;2023-08-24T11:33:38;5.62;;;4.75;;
77280;SDS011;66339;47.262;17.144;2023-08-24T11:36:08;5.22;;;4.22;;
77280;SDS011;66339;47.262;17.144;2023-08-24T11:38:39;6.07;;;4.80;;
77280;SDS011;66339;47.262;17.144;2023-08-24T11:43:42;5.47;;;4.85;;
77280;SDS011;66339;47.262;17.144;2023-08-24T11:46:10;6.15;;;4.85;;
77280;SDS011;66339;47.262;17.144;2023-08-24T11:48:38;6.50;;;4.70;;
77280;SDS011;66339;47.262;17.144;2023-08-24T11:51:09;6.32;;;5.05;;
77280;SDS011;66339;47.262;17.144;2023-08-24T11:53:44;4.90;;;4.40;;
77280;SDS011;66339;47.262;17.144;2023-08-24T11:56:15;5.20;;;4.70;;
77280;SDS011;66339;47.262;17.144;2023-08-24T11:58:47;4.80;;;4.30;;
77280;SDS011;66339;47.262;17.144;2023-08-24T12:01:15;5.95;;;4.35;;
77280;SDS011;66339;47.262;17.144;2023-08-24T12:03:45;5.32;;;4.82;;
77280;SDS011;66339;47.262;17.144;2023-08-24T12:06:14;6.47;;;4.32;;
77280;SDS011;66339;47.262;17.144;2023-08-24T12:08:47;5.78;;;4.43;;
77280;SDS011;66339;47.262;17.144;2023-08-24T12:11:39;6.43;;;4.65;;
77280;SDS011;66339;47.262;17.144;2023-08-24T12:14:20;5.93;;;4.82;;
77280;SDS011;66339;47.262;17.144;2023-08-24T12:16:58;5.00;;;4.37;;
77280;SDS011;66339;47.262;17.144;2023-08-24T12:19:33;4.80;;;4.30;;
77280;SDS011;66339;47.262;17.144;2023-08-24T12:22:00;5.43;;;4.60;;
77280;SDS011;66339;47.262;17.144;2023-08-24T12:24:34;5.57;;;4.68;;
77280;SDS011;66339;47.262;17.144;2023-08-24T12:29:43;5.03;;;4.53;;
77280;SDS011;66339;47.262;17.144;2023-08-24T12:32:14;5.37;;;4.70;;
77280;SDS011;66339;47.262;17.144;2023-08-24T12:34:46;5.00;;;4.50;;
77280;SDS011;66339;47.262;17.144;2023-08-24T12:37:16;5.00;;;4.50;;
77280;SDS011;66339;47.262;17.144;2023-08-24T12:39:44;5.25;;;4.70;;
77280;SDS011;66339;47.262;17.144;2023-08-24T12:42:12;6.07;;;4.57;;
77280;SDS011;66339;47.262;17.144;2023-08-24T12:44:39;5.43;;;4.20;;
77280;SDS011;66339;47.262;17.144;2023-08-24T12:47:08;5.55;;;4.47;;
77280;SDS011;66339;47.262;17.144;2023-08-24T12:49:37;5.57;;;4.72;;
77280;SDS011;66339;47.262;17.144;2023-08-24T12:52:04;5.40;;;4.40;;
77280;SDS011;66339;47.262;17.144;2023-08-24T12:54:32;5.60;;;4.68;;
77280;SDS011;66339;47.262;17.144;2023-08-24T12:57:00;4.85;;;4.37;;
77280;SDS011;66339;47.262;17.144;2023-08-24T12:59:27;5.68;;;4.60;;
77280;SDS011;66339;47.262;17.144;2023-08-24T13:01:58;4.97;;;4.30;;
77280;SDS011;66339;47.262;17.144;2023-08-24T13:04:27;5.05;;;4.57;;
77280;SDS011;66339;47.262;17.144;2023-08-24T13:06:58;5.93;;;4.50;;
77280;SDS011;66339;47.262;17.144;2023-08-24T13:09:33;5.15;;;4.65;;
77280;SDS011;66339;47.262;17.144;2023-08-24T13:12:06;5.70;;;4.50;;
77280;SDS011;66339;47.262;17.144;2023-08-24T13:14:34;5.50;;;4.72;;
77280;SDS011;66339;47.262;17.144;2023-08-24T13:17:01;4.75;;;4.25;;
77280;SDS011;66339;47.262;17.144;2023-08-24T13:19:32;4.80;;;4.25;;
77280;SDS011;66339;47.262;17.144;2023-08-24T13:21:59;4.78;;;4.03;;
77280;SDS011;66339;47.262;17.144;2023-08-24T13:24:27;5.50;;;4.47;;
77280;SDS011;66339;47.262;17.144;2023-08-24T13:26:57;5.40;;;4.53;;
77280;SDS011;66339;47.262;17.144;2023-08-24T13:29:25;4.45;;;4.00;;
77280;SDS011;66339;47.262;17.144;2023-08-24T13:31:53;4.53;;;4.12;;
77280;SDS011;66339;47.262;17.144;2023-08-24T13:34:21;4.62;;;4.10;;
77280;SDS011;66339;47.262;17.144;2023-08-24T13:36:49;5.35;;;4.55;;
77280;SDS011;66339;47.262;17.144;2023-08-24T13:39:16;6.22;;;4.60;;
77280;SDS011;66339;47.262;17.144;2023-08-24T13:41:48;5.65;;;4.53;;
77280;SDS011;66339;47.262;17.144;2023-08-24T13:44:18;5.12;;;4.30;;
77280;SDS011;66339;47.262;17.144;2023-08-24T13:46:46;5.15;;;4.15;;
77280;SDS011;66339;47.262;17.144;2023-08-24T13:49:14;4.75;;;4.22;;
77280;SDS011;66339;47.262;17.144;2023-08-24T13:52:06;4.75;;;4.25;;
77280;SDS011;66339;47.262;17.144;2023-08-24T13:54:34;4.85;;;4.35;;
77280;SDS011;66339;47.262;17.144;2023-08-24T13:57:04;5.60;;;4.40;;
77280;SDS011;66339;47.262;17.144;2023-08-24T13:59:39;4.78;;;4.28;;
77280;SDS011;66339;47.262;17.144;2023-08-24T14:02:10;5.68;;;4.50;;
77280;SDS011;66339;47.262;17.144;2023-08-24T14:04:37;4.95;;;4.45;;
77280;SDS011;66339;47.262;17.144;2023-08-24T14:07:08;5.12;;;4.20;;
77280;SDS011;66339;47.262;17.144;2023-08-24T14:09:44;4.62;;;4.12;;
77280;SDS011;66339;47.262;17.144;2023-08-24T14:12:31;6.57;;;4.05;;
77280;SDS011;66339;47.262;17.144;2023-08-24T14:14:59;4.30;;;3.80;;
77280;SDS011;66339;47.262;17.144;2023-08-24T14:17:27;4.53;;;4.12;;
77280;SDS011;66339;47.262;17.144;2023-08-24T14:19:55;5.22;;;3.90;;
77280;SDS011;66339;47.262;17.144;2023-08-24T14:22:27;5.43;;;4.30;;
77280;SDS011;66339;47.262;17.144;2023-08-24T14:25:00;4.50;;;4.03;;
77280;SDS011;66339;47.262;17.144;2023-08-24T14:27:28;4.50;;;4.05;;
77280;SDS011;66339;47.262;17.144;2023-08-24T14:30:00;4.95;;;4.30;;
77280;SDS011;66339;47.262;17.144;2023-08-24T14:32:28;5.10;;;3.60;;
77280;SDS011;66339;47.262;17.144;2023-08-24T14:34:56;4.62;;;4.10;;
77280;SDS011;66339;47.262;17.144;2023-08-24T14:37:25;4.82;;;4.32;;
77280;SDS011;66339;47.262;17.144;2023-08-24T14:40:00;4.50;;;3.90;;
77280;SDS011;66339;47.262;17.144;2023-08-24T14:42:39;5.47;;;3.83;;
77280;SDS011;66339;47.262;17.144;2023-08-24T14:45:07;5.57;;;4.50;;
77280;SDS011;66339;47.262;17.144;2023-08-24T14:47:36;4.60;;;4.20;;
77280;SDS011;66339;47.262;17.144;2023-08-24T14:50:14;4.78;;;4.07;;
77280;SDS011;66339;47.262;17.144;2023-08-24T14:52:42;4.68;;;4.00;;
77280;SDS011;66339;47.262;17.144;2023-08-24T14:55:17;4.18;;;3.78;;
77280;SDS011;66339;47.262;17.144;2023-08-24T14:57:44;4.80;;;4.00;;
77280;SDS011;66339;47.262;17.144;2023-08-24T15:00:16;5.03;;;3.97;;
77280;SDS011;66339;47.262;17.144;2023-08-24T15:05:12;5.03;;;4.12;;
77280;SDS011;66339;47.262;17.144;2023-08-24T15:07:44;4.28;;;3.87;;
77280;SDS011;66339;47.262;17.144;2023-08-24T15:10:23;4.87;;;4.22;;
77280;SDS011;66339;47.262;17.144;2023-08-24T15:12:52;4.60;;;4.10;;
77280;SDS011;66339;47.262;17.144;2023-08-24T15:15:21;4.93;;;4.22;;
77280;SDS011;66339;47.262;17.144;2023-08-24T15:17:50;4.47;;;4.07;;
77280;SDS011;66339;47.262;17.144;2023-08-24T15:20:19;4.57;;;3.92;;
77280;SDS011;66339;47.262;17.144;2023-08-24T15:22:47;4.68;;;4.10;;
77280;SDS011;66339;47.262;17.144;2023-08-24T15:25:15;4.60;;;4.12;;
77280;SDS011;66339;47.262;17.144;2023-08-24T15:27:44;4.72;;;3.92;;
77280;SDS011;66339;47.262;17.144;2023-08-24T15:30:11;4.95;;;3.97;;
77280;SDS011;66339;47.262;17.144;2023-08-24T15:32:38;4.40;;;4.00;;
77280;SDS011;66339;47.262;17.144;2023-08-24T15:35:14;4.55;;;4.05;;
77280;SDS011;66339;47.262;17.144;2023-08-24T15:37:41;4.47;;;4.00;;
77280;SDS011;66339;47.262;17.144;2023-08-24T15:40:09;4.22;;;3.83;;